createdAt,value
2017-07-01T00:00:58.376Z,21.40
2017-07-01T00:03:26.653Z,17.32
2017-07-01T00:05:54.928Z,18.38
2017-07-01T00:08:23.218Z,17.18
2017-07-01T00:10:51.489Z,18.94
2017-07-01T00:13:19.796Z,19.02
2017-07-01T00:15:48.065Z,16.42
2017-07-01T00:18:16.369Z,17.42
2017-07-01T00:20:44.637Z,17.94
2017-07-01T00:23:12.906Z,16.56
2017-07-01T00:25:41.244Z,17.14
2017-07-01T00:28:09.513Z,18.14
2017-07-01T00:30:37.784Z,16.20
2017-07-01T00:33:06.076Z,17.34
2017-07-01T00:35:34.345Z,17.28
2017-07-01T00:38:02.643Z,15.64
2017-07-01T00:40:30.962Z,15.32
2017-07-01T00:42:59.228Z,16.74
2017-07-01T00:45:27.508Z,16.12
2017-07-01T00:47:55.801Z,16.18
2017-07-01T00:50:24.132Z,16.42
2017-07-01T00:52:52.411Z,18.04
2017-07-01T00:55:20.685Z,15.90
2017-07-01T00:57:48.967Z,17.62
2017-07-01T01:00:17.245Z,17.52
2017-07-01T01:02:45.556Z,18.18
2017-07-01T01:05:13.821Z,16.98
2017-07-01T01:07:42.100Z,16.56
2017-07-01T01:10:10.390Z,17.06
2017-07-01T01:12:38.655Z,20.20
2017-07-01T01:15:06.946Z,21.62
2017-07-01T01:17:35.220Z,20.70
2017-07-01T01:20:03.517Z,19.72
2017-07-01T01:22:31.828Z,21.70
2017-07-01T01:25:00.105Z,22.74
2017-07-01T01:27:28.385Z,21.70
2017-07-01T01:29:56.697Z,22.34
2017-07-01T01:32:25.009Z,26.14
2017-07-01T01:34:53.282Z,25.58
2017-07-01T01:37:21.561Z,22.88
2017-07-01T01:39:49.881Z,27.66
2017-07-01T01:42:18.159Z,26.48
2017-07-01T01:44:46.423Z,28.94
2017-07-01T01:47:14.746Z,27.14
2017-07-01T01:49:43.021Z,26.60
2017-07-01T01:52:11.295Z,27.28
2017-07-01T01:54:39.606Z,28.92
2017-07-01T01:57:07.881Z,28.92
2017-07-01T01:59:36.190Z,28.20
2017-07-01T02:02:04.460Z,25.90
2017-07-01T02:04:32.732Z,27.32
2017-07-01T02:07:01.018Z,25.96
2017-07-01T02:09:29.292Z,26.06
2017-07-01T02:12:09.977Z,26.72
2017-07-01T02:14:38.243Z,23.58
2017-07-01T02:17:11.976Z,25.28
2017-07-01T02:19:40.243Z,26.54
2017-07-01T02:22:26.164Z,26.68
2017-07-01T02:25:11.991Z,25.68
2017-07-01T02:27:40.284Z,26.60
2017-07-01T02:30:08.557Z,26.62
2017-07-01T02:32:58.687Z,25.80
2017-07-01T02:35:27.006Z,24.50
2017-07-01T02:37:55.272Z,28.22
2017-07-01T02:40:23.564Z,24.50
2017-07-01T02:42:51.837Z,26.64
2017-07-01T02:45:37.846Z,25.94
2017-07-01T02:48:08.920Z,29.84
2017-07-01T02:50:40.632Z,29.90
2017-07-01T02:53:21.752Z,27.42
2017-07-01T02:56:11.873Z,26.82
2017-07-01T02:58:45.834Z,26.32
2017-07-01T03:01:14.170Z,29.06
2017-07-01T03:03:42.493Z,27.10
2017-07-01T03:06:10.776Z,25.76
2017-07-01T03:08:39.053Z,29.86
2017-07-01T03:11:07.344Z,25.12
2017-07-01T03:13:35.621Z,27.54
2017-07-01T03:16:03.926Z,26.94
2017-07-01T03:18:32.197Z,28.20
2017-07-01T03:21:01.427Z,27.82
2017-07-01T03:23:29.700Z,25.78
2017-07-01T03:25:58.834Z,29.28
2017-07-01T03:28:27.164Z,30.72
2017-07-01T03:30:55.456Z,27.98
2017-07-01T03:33:23.741Z,28.18
2017-07-01T03:35:52.013Z,25.96
2017-07-01T03:38:42.060Z,29.48
2017-07-01T03:41:22.208Z,26.48
2017-07-01T03:44:09.280Z,28.42
2017-07-01T03:46:39.996Z,28.02
2017-07-01T03:49:10.910Z,28.86
2017-07-01T03:51:39.187Z,25.90
2017-07-01T03:54:07.464Z,26.82
2017-07-01T03:56:35.757Z,26.20
2017-07-01T03:59:04.033Z,24.82
2017-07-01T04:01:32.330Z,26.86
2017-07-01T04:04:00.604Z,27.98
2017-07-01T04:06:28.920Z,27.10
2017-07-01T04:08:57.210Z,26.58
2017-07-01T04:11:25.485Z,28.52
2017-07-01T04:13:53.783Z,24.00
2017-07-01T04:16:22.061Z,24.60
2017-07-01T04:18:52.997Z,25.50
2017-07-01T04:21:21.268Z,28.44
2017-07-01T04:23:48.777Z,27.70
2017-07-01T04:26:17.108Z,27.66
2017-07-01T04:28:45.423Z,27.40
2017-07-01T04:31:13.706Z,26.62
2017-07-01T04:33:41.993Z,26.22
2017-07-01T04:36:10.277Z,25.50
2017-07-01T04:38:45.293Z,26.08
2017-07-01T04:41:17.557Z,23.74
2017-07-01T04:43:57.387Z,23.30
2017-07-01T04:46:25.713Z,22.62
2017-07-01T04:48:55.112Z,21.86
2017-07-01T04:51:31.228Z,23.22
2017-07-01T04:54:00.294Z,23.54
2017-07-01T04:57:05.050Z,22.52
2017-07-01T04:59:33.325Z,21.84
2017-07-01T05:02:06.255Z,22.88
2017-07-01T05:04:38.937Z,22.22
2017-07-01T05:10:25.504Z,23.37
2017-07-01T05:12:53.797Z,23.08
2017-07-01T05:15:39.938Z,20.56
2017-07-01T05:18:08.238Z,20.20
2017-07-01T05:20:53.842Z,20.76
2017-07-01T05:23:22.150Z,17.76
2017-07-01T05:26:06.765Z,17.30
2017-07-01T05:28:41.841Z,16.50
2017-07-01T05:31:22.833Z,18.06
2017-07-01T05:33:54.670Z,17.90
2017-07-01T05:36:29.812Z,18.26
2017-07-01T05:39:08.863Z,18.18
2017-07-01T05:41:39.921Z,15.76
2017-07-01T05:44:08.221Z,17.34
2017-07-01T05:46:39.065Z,15.84
2017-07-01T05:49:12.878Z,14.74
2017-07-01T05:51:44.817Z,14.36
2017-07-01T05:54:29.864Z,14.24
2017-07-01T05:56:58.152Z,14.42
2017-07-01T05:59:40.032Z,14.48
2017-07-01T06:02:10.103Z,13.48
2017-07-01T06:04:38.369Z,14.36
2017-07-01T06:07:06.657Z,13.34
2017-07-01T06:09:46.776Z,13.14
2017-07-01T06:12:26.853Z,14.22
2017-07-01T06:14:55.137Z,12.34
2017-07-01T06:17:40.225Z,12.90
2017-07-01T06:20:23.404Z,14.80
2017-07-01T06:22:51.686Z,13.70
2017-07-01T06:25:19.955Z,13.44
2017-07-01T06:27:48.950Z,13.62
2017-07-01T06:30:28.911Z,13.96
2017-07-01T06:33:14.848Z,13.12
2017-07-01T06:36:08.917Z,13.34
2017-07-01T06:38:40.748Z,10.54
2017-07-01T06:41:17.474Z,12.26
2017-07-01T06:43:57.660Z,12.44
2017-07-01T06:46:29.649Z,10.68
2017-07-01T06:48:58.652Z,10.02
2017-07-01T06:51:26.932Z,10.24
2017-07-01T06:53:58.037Z,10.08
2017-07-01T06:56:26.321Z,10.04
2017-07-01T06:58:54.585Z,9.46
2017-07-01T07:01:23.861Z,9.80
2017-07-01T07:03:52.131Z,7.80
2017-07-01T07:06:19.649Z,8.60
2017-07-01T07:08:47.930Z,8.34
2017-07-01T07:11:16.235Z,7.60
2017-07-01T07:13:44.500Z,8.42
2017-07-01T07:16:12.777Z,8.98
2017-07-01T07:18:41.065Z,8.58
2017-07-01T07:21:09.381Z,7.84
2017-07-01T07:23:37.657Z,6.64
2017-07-01T07:26:05.970Z,7.30
2017-07-01T07:28:34.234Z,6.54
2017-07-01T07:31:02.537Z,7.46
2017-07-01T07:33:30.806Z,7.44
2017-07-01T07:35:59.126Z,7.68
2017-07-01T07:38:27.421Z,6.36
2017-07-01T07:40:55.686Z,6.18
2017-07-01T07:43:23.972Z,7.88
2017-07-01T07:45:52.245Z,8.52
2017-07-01T07:48:20.545Z,6.76
2017-07-01T07:50:48.809Z,6.62
2017-07-01T07:53:17.109Z,7.48
2017-07-01T07:55:47.483Z,7.88
2017-07-01T07:58:15.777Z,7.90
2017-07-01T08:00:44.046Z,7.10
2017-07-01T08:03:12.347Z,6.90
2017-07-01T08:05:40.608Z,6.48
2017-07-01T08:08:08.874Z,5.62
2017-07-01T08:10:37.168Z,6.22
2017-07-01T08:13:05.438Z,7.64
2017-07-01T08:15:33.741Z,5.94
2017-07-01T08:18:01.238Z,5.30
2017-07-01T08:20:29.505Z,5.02
2017-07-01T08:22:57.787Z,5.80
2017-07-01T08:25:26.054Z,6.06
2017-07-01T08:27:54.362Z,5.10
2017-07-01T08:30:22.629Z,4.74
2017-07-01T08:32:50.886Z,5.20
2017-07-01T08:35:19.188Z,5.08
2017-07-01T08:37:47.448Z,4.80
2017-07-01T08:40:15.715Z,4.74
2017-07-01T08:42:43.996Z,5.46
2017-07-01T08:45:12.269Z,5.46
2017-07-01T08:47:40.551Z,4.88
2017-07-01T08:50:08.820Z,4.96
2017-07-01T08:52:37.128Z,4.80
2017-07-01T08:55:05.394Z,4.00
2017-07-01T08:57:33.656Z,5.60
2017-07-01T09:00:01.946Z,5.12
2017-07-01T09:02:30.210Z,5.48
2017-07-01T09:04:58.549Z,6.08
2017-07-01T09:07:26.810Z,5.00
2017-07-01T09:09:55.113Z,6.00
2017-07-01T09:12:23.388Z,5.54
2017-07-01T09:14:51.656Z,5.78
2017-07-01T09:23:07.806Z,4.92
2017-07-01T09:25:36.092Z,5.08
2017-07-01T09:28:04.357Z,5.80
2017-07-01T09:30:32.660Z,4.84
2017-07-01T09:33:00.920Z,4.94
2017-07-01T09:35:29.185Z,5.28
2017-07-01T09:37:57.495Z,5.04
2017-07-01T09:40:25.759Z,5.08
2017-07-01T09:42:54.056Z,4.80
2017-07-01T09:45:22.346Z,4.60
2017-07-01T09:47:50.642Z,5.14
2017-07-01T09:50:18.918Z,5.36
2017-07-01T09:52:47.216Z,5.68
2017-07-01T09:55:15.487Z,6.06
2017-07-01T09:57:43.769Z,4.98
2017-07-01T10:00:12.079Z,4.88
2017-07-01T10:02:40.340Z,4.80
2017-07-01T10:05:08.596Z,5.36
2017-07-01T10:07:36.896Z,5.04
2017-07-01T10:10:05.198Z,5.44
2017-07-01T10:12:33.479Z,6.92
2017-07-01T10:15:01.781Z,6.78
2017-07-01T10:17:30.047Z,6.30
2017-07-01T10:19:58.362Z,5.70
2017-07-01T10:22:26.649Z,6.50
2017-07-01T10:24:54.930Z,5.14
2017-07-01T10:27:22.451Z,6.92
2017-07-01T10:29:50.711Z,6.42
2017-07-01T10:32:19.008Z,6.18
2017-07-01T10:34:47.265Z,6.78
2017-07-01T10:37:15.895Z,6.76
2017-07-01T10:39:44.156Z,7.72
2017-07-01T10:42:12.416Z,6.88
2017-07-01T10:44:40.701Z,6.72
2017-07-01T10:47:08.972Z,5.46
2017-07-01T10:49:37.268Z,7.52
2017-07-01T10:52:05.540Z,7.54
2017-07-01T10:54:33.836Z,6.18
2017-07-01T10:57:02.120Z,7.28
2017-07-01T10:59:30.419Z,7.52
2017-07-01T11:01:58.716Z,8.36
2017-07-01T11:04:27.015Z,8.28
2017-07-01T11:06:55.277Z,8.62
2017-07-01T11:09:23.547Z,7.46
2017-07-01T11:11:51.852Z,9.20
2017-07-01T11:14:20.112Z,8.08
2017-07-01T11:16:48.421Z,8.34
2017-07-01T11:19:16.676Z,8.84
2017-07-01T11:21:44.941Z,8.62
2017-07-01T11:24:13.242Z,8.68
2017-07-01T11:26:41.506Z,8.18
2017-07-01T11:29:09.817Z,8.82
2017-07-01T11:31:38.088Z,9.68
2017-07-01T11:34:06.384Z,9.02
2017-07-01T11:36:34.685Z,8.08
2017-07-01T11:39:02.187Z,9.30
2017-07-01T11:41:30.444Z,9.16
2017-07-01T11:43:58.752Z,10.82
2017-07-01T11:46:27.024Z,10.90
2017-07-01T11:48:55.298Z,11.66
2017-07-01T11:51:23.591Z,10.24
2017-07-01T11:53:51.884Z,9.92
2017-07-01T11:56:20.154Z,9.08
2017-07-01T11:58:48.466Z,9.84
2017-07-01T12:01:16.730Z,8.48
2017-07-01T12:03:45.000Z,9.12
2017-07-01T12:06:13.290Z,9.50
2017-07-01T12:08:41.570Z,8.98
2017-07-01T12:11:09.872Z,9.96
2017-07-01T12:13:38.144Z,9.92
2017-07-01T12:16:06.402Z,10.34
2017-07-01T12:18:34.704Z,11.82
2017-07-01T12:21:02.974Z,9.68
2017-07-01T12:23:31.267Z,9.98
2017-07-01T12:25:59.537Z,10.42
2017-07-01T12:28:27.834Z,11.30
2017-07-01T12:30:56.142Z,9.34
2017-07-01T12:33:24.410Z,9.92
2017-07-01T12:35:52.681Z,9.38
2017-07-01T12:38:20.972Z,9.42
2017-07-01T12:40:49.236Z,9.72
2017-07-01T12:43:17.534Z,8.60
2017-07-01T12:45:45.803Z,8.90
2017-07-01T12:48:14.110Z,7.82
2017-07-01T12:50:42.385Z,9.78
2017-07-01T12:53:10.677Z,8.64
2017-07-01T12:55:38.180Z,8.94
2017-07-01T12:58:06.480Z,8.28
2017-07-01T13:00:34.792Z,9.46
2017-07-01T13:03:03.056Z,8.36
2017-07-01T13:05:30.562Z,9.04
2017-07-01T13:07:58.865Z,8.22
2017-07-01T13:10:27.119Z,8.76
2017-07-01T13:12:55.421Z,11.26
2017-07-01T13:15:23.718Z,9.68
2017-07-01T13:17:51.989Z,9.94
2017-07-01T13:20:20.288Z,10.38
2017-07-01T13:22:48.555Z,13.34
2017-07-01T13:25:16.081Z,12.58
2017-07-01T13:27:44.376Z,9.54
2017-07-01T13:30:12.640Z,10.04
2017-07-01T13:32:40.942Z,9.42
2017-07-01T13:35:09.217Z,9.68
2017-07-01T13:37:37.524Z,10.62
2017-07-01T13:40:05.840Z,10.48
2017-07-01T13:42:34.103Z,9.68
2017-07-01T13:45:02.410Z,10.42
2017-07-01T13:47:30.688Z,10.12
2017-07-01T13:49:58.962Z,9.20
2017-07-01T13:52:27.259Z,7.60
2017-07-01T13:54:55.530Z,7.46
2017-07-01T13:57:23.824Z,8.72
2017-07-01T13:59:52.112Z,7.42
2017-07-01T14:02:20.381Z,7.00
2017-07-01T14:04:48.683Z,7.68
2017-07-01T14:07:16.967Z,7.48
2017-07-01T14:09:45.264Z,6.84
2017-07-01T14:12:13.532Z,6.68
2017-07-01T14:14:41.832Z,7.42
2017-07-01T14:17:10.100Z,7.12
2017-07-01T14:19:38.397Z,7.06
2017-07-01T14:22:06.709Z,6.58
2017-07-01T14:24:34.258Z,7.58
2017-07-01T14:27:02.529Z,7.14
2017-07-01T14:29:30.797Z,8.02
2017-07-01T14:31:59.086Z,6.64
2017-07-01T14:34:28.883Z,6.36
2017-07-01T14:36:57.174Z,6.88
2017-07-01T14:39:25.446Z,6.78
2017-07-01T14:41:53.737Z,6.82
2017-07-01T14:44:22.027Z,7.08
2017-07-01T14:46:50.294Z,7.18
2017-07-01T14:49:18.587Z,7.00
2017-07-01T14:51:46.858Z,6.36
2017-07-01T14:54:15.148Z,6.88
2017-07-01T14:56:43.412Z,6.78
2017-07-01T14:59:11.678Z,6.26
2017-07-01T15:01:39.972Z,6.66
2017-07-01T15:04:08.240Z,6.46
2017-07-01T15:06:36.548Z,6.52
2017-07-01T15:09:04.832Z,6.54
2017-07-01T15:11:33.135Z,6.12
2017-07-01T15:14:01.410Z,6.44
2017-07-01T15:16:29.709Z,6.16
2017-07-01T15:18:58.003Z,6.70
2017-07-01T15:21:26.273Z,7.32
2017-07-01T15:23:54.729Z,5.96
2017-07-01T15:26:23.000Z,6.74
2017-07-01T15:28:51.297Z,5.58
2017-07-01T15:31:19.566Z,6.20
2017-07-01T15:33:47.884Z,7.14
2017-07-01T15:36:16.165Z,6.84
2017-07-01T15:38:44.441Z,6.28
2017-07-01T15:41:12.748Z,6.60
2017-07-01T15:43:41.031Z,7.28
2017-07-01T15:46:09.329Z,6.46
2017-07-01T15:48:37.607Z,7.70
2017-07-01T15:51:05.904Z,6.58
2017-07-01T15:53:34.173Z,7.92
2017-07-01T15:56:02.473Z,7.74
2017-07-01T15:58:30.852Z,7.24
2017-07-01T16:01:10.805Z,8.54
2017-07-01T16:03:39.069Z,8.28
2017-07-01T16:06:07.368Z,8.72
2017-07-01T16:08:34.895Z,7.40
2017-07-01T16:11:03.166Z,9.40
2017-07-01T16:13:31.461Z,7.22
2017-07-01T16:15:59.748Z,8.20
2017-07-01T16:18:28.034Z,7.36
2017-07-01T16:20:56.303Z,7.86
2017-07-01T16:23:24.617Z,9.04
2017-07-01T16:25:52.886Z,8.98
2017-07-01T16:28:21.149Z,8.42
2017-07-01T16:30:49.449Z,7.64
2017-07-01T16:33:17.720Z,9.80
2017-07-01T16:35:46.020Z,7.24
2017-07-01T16:38:14.297Z,9.82
2017-07-01T16:40:42.595Z,9.18
2017-07-01T16:43:10.870Z,9.02
2017-07-01T16:45:39.151Z,8.18
2017-07-01T16:48:07.446Z,9.78
2017-07-01T16:50:35.721Z,8.88
2017-07-01T16:53:04.038Z,8.84
2017-07-01T16:55:32.312Z,9.62
2017-07-01T16:58:00.628Z,9.66
2017-07-01T17:00:28.930Z,9.26
2017-07-01T17:02:57.237Z,10.36
2017-07-01T17:05:25.513Z,9.60
2017-07-01T17:07:53.809Z,9.22
2017-07-01T17:10:22.078Z,9.24
2017-07-01T17:12:50.383Z,9.94
2017-07-01T17:15:17.883Z,9.40
2017-07-01T17:17:46.190Z,10.04
2017-07-01T17:20:14.458Z,8.90
2017-07-01T17:22:42.766Z,9.20
2017-07-01T17:25:11.037Z,9.34
2017-07-01T17:27:39.316Z,11.30
2017-07-01T17:30:06.870Z,8.84
2017-07-01T17:32:35.140Z,8.04
2017-07-01T17:35:03.442Z,9.92
2017-07-01T17:37:31.725Z,11.04
2017-07-01T17:40:00.033Z,8.90
2017-07-01T17:42:28.309Z,10.20
2017-07-01T17:44:56.603Z,9.04
2017-07-01T17:47:24.874Z,9.72
2017-07-01T17:49:53.164Z,9.60
2017-07-01T17:52:21.424Z,10.22
2017-07-01T17:54:49.728Z,9.44
2017-07-01T17:57:18.025Z,9.92
2017-07-01T17:59:45.547Z,10.50
2017-07-01T18:02:13.861Z,10.80
2017-07-01T18:04:42.154Z,10.04
2017-07-01T18:07:10.426Z,9.40
2017-07-01T18:09:38.712Z,9.38
2017-07-01T18:12:06.988Z,9.02
2017-07-01T18:14:35.306Z,9.34
2017-07-01T18:17:03.586Z,8.98
2017-07-01T18:19:31.853Z,9.42
2017-07-01T18:22:00.148Z,9.36
2017-07-01T18:24:28.433Z,10.20
2017-07-01T18:26:56.733Z,10.34
2017-07-01T18:29:25.022Z,10.86
2017-07-01T18:31:53.324Z,9.68
2017-07-01T18:34:21.592Z,9.46
2017-07-01T18:36:49.893Z,9.60
2017-07-01T18:39:18.177Z,9.88
2017-07-01T18:41:46.486Z,9.48
2017-07-01T18:44:14.998Z,9.92
2017-07-01T18:46:43.286Z,10.10
2017-07-01T18:49:11.597Z,9.08
2017-07-01T18:51:39.874Z,9.94
2017-07-01T18:54:08.171Z,9.72
2017-07-01T18:56:36.440Z,9.18
2017-07-01T18:59:04.741Z,9.56
2017-07-01T19:01:33.022Z,9.58
2017-07-01T19:04:01.329Z,9.84
2017-07-01T19:06:29.625Z,10.70
2017-07-01T19:08:57.902Z,8.86
2017-07-01T19:11:26.201Z,10.98
2017-07-01T19:13:54.467Z,11.32
2017-07-01T19:16:22.770Z,10.18
2017-07-01T19:18:51.053Z,9.64
2017-07-01T19:21:19.377Z,9.22
2017-07-01T19:23:47.647Z,10.36
2017-07-01T19:26:15.921Z,9.26
2017-07-01T19:28:44.220Z,9.78
2017-07-01T19:31:13.053Z,9.32
2017-07-01T19:33:41.364Z,11.02
2017-07-01T19:36:09.731Z,9.10
2017-07-01T19:38:38.086Z,9.00
2017-07-01T19:41:06.381Z,10.00
2017-07-01T19:43:34.721Z,9.96
2017-07-01T19:46:03.011Z,9.64
2017-07-01T19:48:31.324Z,9.66
2017-07-01T19:50:59.588Z,9.10
2017-07-01T19:53:27.865Z,9.42
2017-07-01T19:55:56.162Z,10.28
2017-07-01T19:58:24.444Z,10.50
2017-07-01T20:00:52.764Z,8.72
2017-07-01T20:03:21.036Z,8.52
2017-07-01T20:05:49.304Z,9.42
2017-07-01T20:08:17.596Z,9.16
2017-07-01T20:10:45.876Z,8.36
2017-07-01T20:13:14.176Z,8.80
2017-07-01T20:15:42.441Z,8.32
2017-07-01T20:18:10.733Z,8.54
2017-07-01T20:20:39.008Z,7.92
2017-07-01T20:23:07.305Z,8.10
2017-07-01T20:25:35.576Z,8.20
2017-07-01T20:28:03.864Z,8.00
2017-07-01T20:30:32.129Z,8.54
2017-07-01T20:33:00.445Z,8.14
2017-07-01T20:35:28.732Z,7.42
2017-07-01T20:37:56.999Z,7.72
2017-07-01T20:40:25.295Z,8.20
2017-07-01T20:42:53.566Z,8.68
2017-07-01T20:45:21.869Z,8.44
2017-07-01T20:47:50.141Z,9.02
2017-07-01T20:50:18.447Z,7.78
2017-07-01T20:52:46.712Z,9.34
2017-07-01T20:55:15.009Z,7.46
2017-07-01T20:57:43.271Z,9.80
2017-07-01T21:00:11.567Z,8.42
2017-07-01T21:02:39.842Z,10.18
2017-07-01T21:05:08.142Z,9.26
2017-07-01T21:07:36.425Z,9.46
2017-07-01T21:10:04.694Z,7.90
2017-07-01T21:12:32.981Z,8.78
2017-07-01T21:15:01.257Z,8.46
2017-07-01T21:17:29.544Z,8.56
2017-07-01T21:19:57.819Z,9.56
2017-07-01T21:22:26.091Z,11.68
2017-07-01T21:24:54.401Z,9.40
2017-07-01T21:27:22.676Z,10.58
2017-07-01T21:29:50.955Z,8.12
2017-07-01T21:32:19.259Z,9.02
2017-07-01T21:34:47.534Z,8.70
2017-07-01T21:37:15.831Z,8.60
2017-07-01T21:39:44.092Z,9.04
2017-07-01T21:42:12.393Z,8.46
2017-07-01T21:44:40.666Z,9.62
2017-07-01T21:47:08.964Z,9.22
2017-07-01T21:49:37.231Z,8.62
2017-07-01T21:52:05.531Z,9.30
2017-07-01T21:54:33.836Z,9.60
2017-07-01T21:57:02.141Z,9.88
2017-07-01T21:59:30.448Z,9.60
2017-07-01T22:01:58.728Z,10.86
2017-07-01T22:04:27.016Z,11.62
2017-07-01T22:06:55.286Z,9.18
2017-07-01T22:09:23.596Z,8.98
2017-07-01T22:11:51.873Z,10.02
2017-07-01T22:14:20.151Z,10.22
2017-07-01T22:16:48.460Z,11.74
2017-07-01T22:19:15.999Z,10.78
2017-07-01T22:21:44.264Z,9.42
2017-07-01T22:24:11.761Z,9.30
2017-07-01T22:26:40.061Z,10.38
2017-07-01T22:29:08.324Z,11.06
2017-07-01T22:31:36.642Z,9.58
2017-07-01T22:34:04.936Z,9.44
2017-07-01T22:36:33.240Z,10.36
2017-07-01T22:39:01.543Z,10.54
2017-07-01T22:41:29.823Z,10.58
2017-07-01T22:43:58.121Z,10.68
2017-07-01T22:46:26.397Z,9.64
2017-07-01T22:48:54.702Z,10.08
2017-07-01T22:51:22.976Z,11.32
2017-07-01T22:53:51.286Z,10.66
2017-07-01T22:56:19.563Z,10.92
2017-07-01T22:58:47.873Z,10.22
2017-07-01T23:01:16.141Z,10.80
2017-07-01T23:03:44.448Z,11.40
2017-07-01T23:06:12.716Z,10.96
2017-07-01T23:08:40.996Z,10.88
2017-07-01T23:11:09.295Z,11.38
2017-07-01T23:13:37.574Z,11.46
2017-07-01T23:16:05.865Z,11.06
2017-07-01T23:18:34.135Z,10.38
2017-07-01T23:21:02.435Z,10.80
2017-07-01T23:23:30.709Z,8.74
2017-07-01T23:25:59.028Z,9.84
2017-07-01T23:28:27.306Z,9.94
2017-07-01T23:30:55.586Z,11.80
2017-07-01T23:33:23.886Z,10.12
2017-07-01T23:35:52.191Z,11.36
2017-07-01T23:38:20.506Z,10.26
2017-07-01T23:40:48.789Z,12.10
2017-07-01T23:43:17.070Z,10.40
2017-07-01T23:45:45.374Z,11.64
2017-07-01T23:48:13.644Z,11.02
2017-07-01T23:50:41.939Z,10.78
2017-07-01T23:53:10.248Z,10.00
2017-07-01T23:55:38.550Z,9.82
2017-07-01T23:58:06.821Z,10.64
